Time;durP1;ratioP1;P1;durP2;ratioP2;P2;SDS_P1;SDS_P2;PMS_P1;PMS_P2;Temp;Humidity;BMP_temperature;BMP_pressure;BME280_temperature;BME280_humidity;BME280_pressure;Samples;Min_cycle;Max_cycle;Signal;HPM_P1;HPM_P2
2021/04/02 00:00:39;;;;;;;51.63;28.92;;;13.00;1.00;;;;;;5010509;28;20049;-74
2021/04/02 00:03:11;;;;;;;45.83;27.88;;;13.00;1.00;;;;;;5009281;28;20082;-73
2021/04/02 00:05:39;;;;;;;54.42;30.05;;;13.00;1.00;;;;;;5007067;28;20435;-73
2021/04/02 00:08:06;;;;;;;45.65;28.40;;;12.90;1.00;;;;;;5014858;28;20048;-73
2021/04/02 00:10:38;;;;;;;50.25;29.48;;;12.80;1.00;;;;;;5011336;28;20050;-73
2021/04/02 00:13:05;;;;;;;49.97;28.73;;;12.80;1.00;;;;;;5016215;28;20050;-72
2021/04/02 00:15:32;;;;;;;54.25;30.33;;;12.70;1.00;;;;;;5007609;28;20060;-73
2021/04/02 00:17:59;;;;;;;53.42;29.65;;;12.60;1.00;;;;;;5010375;28;20557;-73
2021/04/02 00:20:26;;;;;;;55.95;31.38;;;12.60;1.00;;;;;;5010556;28;20049;-74
2021/04/02 00:22:54;;;;;;;59.13;30.73;;;12.60;1.00;;;;;;5009645;28;20045;-74
2021/04/02 00:25:21;;;;;;;49.05;29.80;;;12.60;1.00;;;;;;5006161;28;20049;-74
2021/04/02 00:27:48;;;;;;;53.83;30.10;;;12.50;1.00;;;;;;5012480;28;20053;-73
2021/04/02 00:30:18;;;;;;;58.92;30.98;;;12.50;1.00;;;;;;5012866;28;20041;-74
2021/04/02 00:32:45;;;;;;;62.67;30.75;;;12.40;1.00;;;;;;5008906;28;20077;-73
2021/04/02 00:35:13;;;;;;;56.03;30.48;;;12.40;1.00;;;;;;5013621;28;20049;-72
2021/04/02 00:37:41;;;;;;;49.63;29.88;;;12.40;1.00;;;;;;5010397;28;20050;-73
2021/04/02 00:40:15;;;;;;;50.40;28.83;;;12.40;1.00;;;;;;5015173;28;20049;-73
2021/04/02 00:42:42;;;;;;;;;;;12.30;1.00;;;;;;5010322;28;20048;-73
2021/04/02 00:45:10;;;;;;;52.55;30.27;;;12.30;1.00;;;;;;5014732;28;19984;-73
2021/04/02 00:47:37;;;;;;;52.33;30.88;;;12.20;1.00;;;;;;5008415;28;20054;-73
2021/04/02 00:50:08;;;;;;;50.92;30.05;;;12.10;1.00;;;;;;5011238;28;20041;-74
2021/04/02 00:52:35;;;;;;;54.25;29.75;;;12.10;1.00;;;;;;5013080;28;20054;-72
2021/04/02 00:55:03;;;;;;;56.72;30.65;;;12.10;1.00;;;;;;5005746;28;20045;-74
2021/04/02 00:57:33;;;;;;;54.08;29.67;;;12.00;1.00;;;;;;5011765;28;20056;-74
2021/04/02 01:00:00;;;;;;;53.38;30.88;;;12.00;1.00;;;;;;5011715;28;20411;-73
2021/04/02 01:02:27;;;;;;;52.17;29.23;;;12.00;1.00;;;;;;5013348;28;20060;-75
2021/04/02 01:04:54;;;;;;;47.70;27.73;;;11.90;1.00;;;;;;5009807;28;20500;-75
2021/04/02 01:07:22;;;;;;;49.35;29.92;;;11.90;1.00;;;;;;5007956;28;20041;-73
2021/04/02 01:09:51;;;;;;;48.33;28.02;;;11.80;1.00;;;;;;5014449;28;20046;-73
2021/04/02 01:12:18;;;;;;;49.40;29.42;;;11.80;1.00;;;;;;5010901;28;20419;-74
2021/04/02 01:14:46;;;;;;;49.88;28.92;;;11.70;1.00;;;;;;5011130;28;20046;-76
2021/04/02 01:17:13;;;;;;;47.85;29.25;;;11.70;1.00;;;;;;5008840;28;20046;-73
2021/04/02 01:19:45;;;;;;;45.47;27.42;;;11.60;1.00;;;;;;5019557;28;20077;-74
2021/04/02 01:22:16;;;;;;;49.97;27.60;;;11.70;1.00;;;;;;5011444;28;20053;-75
2021/04/02 01:25:05;;;;;;;48.83;25.27;;;11.60;1.00;;;;;;5010004;28;20054;-73
2021/04/02 01:27:40;;;;;;;41.63;24.52;;;11.60;1.00;;;;;;5006814;28;20053;-74
2021/04/02 01:30:11;;;;;;;45.00;24.92;;;11.60;1.00;;;;;;5013991;28;20511;-73
2021/04/02 01:32:41;;;;;;;39.25;22.92;;;11.40;1.00;;;;;;5015773;28;20050;-75
2021/04/02 01:35:14;;;;;;;47.53;23.90;;;11.40;1.00;;;;;;5023232;28;20065;-74
2021/04/02 01:37:46;;;;;;;40.50;22.42;;;11.30;1.00;;;;;;5013117;28;20058;-73
2021/04/02 01:40:15;;;;;;;36.97;21.30;;;11.30;1.00;;;;;;5011911;28;20424;-73
2021/04/02 01:42:44;;;;;;;36.47;21.02;;;11.20;1.00;;;;;;5015080;28;20056;-74
2021/04/02 01:45:15;;;;;;;38.20;20.23;;;11.20;1.00;;;;;;5008337;28;20050;-73
2021/04/02 01:47:42;;;;;;;34.03;20.17;;;11.10;1.00;;;;;;5013526;28;20046;-74
2021/04/02 01:50:13;;;;;;;29.80;18.17;;;11.10;1.00;;;;;;5015160;28;20057;-74
2021/04/02 01:52:41;;;;;;;32.78;17.77;;;11.00;1.00;;;;;;5016390;28;20049;-74
2021/04/02 01:55:10;;;;;;;26.83;16.35;;;10.90;1.00;;;;;;5011838;28;20115;-74
2021/04/02 01:57:38;;;;;;;31.17;15.48;;;11.00;1.00;;;;;;5013753;28;20042;-74
2021/04/02 02:00:11;;;;;;;28.52;15.65;;;10.90;1.00;;;;;;5016312;28;20057;-75
2021/04/02 02:02:41;;;;;;;24.83;15.15;;;10.90;1.00;;;;;;5012910;28;20407;-74
2021/04/02 02:05:10;;;;;;;21.13;14.18;;;10.80;1.00;;;;;;5005874;28;20050;-74
2021/04/02 02:07:38;;;;;;;27.42;14.05;;;10.80;1.00;;;;;;5014256;28;20076;-74
2021/04/02 02:10:07;;;;;;;22.55;12.82;;;10.70;1.00;;;;;;5012553;28;20396;-74
2021/04/02 02:12:36;;;;;;;21.67;11.70;;;10.70;1.00;;;;;;5012824;28;20050;-74
2021/04/02 02:15:07;;;;;;;22.42;11.95;;;10.60;1.00;;;;;;5010898;28;20053;-74
2021/04/02 02:17:34;;;;;;;23.60;12.55;;;10.50;1.00;;;;;;5012126;28;20058;-77
2021/04/02 02:20:07;;;;;;;21.80;12.80;;;10.50;1.00;;;;;;5015291;28;20447;-74
2021/04/02 02:22:34;;;;;;;21.90;12.45;;;10.30;1.00;;;;;;5011463;28;20727;-74
2021/04/02 02:25:02;;;;;;;22.85;13.73;;;10.30;1.00;;;;;;5009541;28;20048;-72
2021/04/02 02:27:29;;;;;;;23.08;13.35;;;10.20;1.00;;;;;;5010446;28;20054;-73
2021/04/02 02:29:56;;;;;;;23.13;14.63;;;10.20;1.00;;;;;;5013246;28;20054;-74
2021/04/02 02:32:23;;;;;;;28.40;15.30;;;10.20;1.00;;;;;;5013873;28;20050;-74
2021/04/02 02:34:50;;;;;;;21.75;13.65;;;10.10;1.00;;;;;;5010987;28;20054;-73
2021/04/02 02:37:20;;;;;;;25.60;14.57;;;10.10;1.00;;;;;;5011428;28;20061;-74
2021/04/02 02:39:47;;;;;;;26.17;13.00;;;10.00;1.00;;;;;;5014168;28;20053;-73
2021/04/02 02:42:14;;;;;;;20.77;12.30;;;10.00;1.00;;;;;;5010382;28;20050;-74
2021/04/02 02:44:44;;;;;;;20.95;11.38;;;10.00;1.00;;;;;;5012652;28;20419;-73
2021/04/02 02:47:11;;;;;;;23.50;11.18;;;9.90;1.00;;;;;;5010695;28;20054;-73
2021/04/02 02:49:40;;;;;;;20.48;11.50;;;9.90;1.00;;;;;;5013633;28;20403;-73
2021/04/02 02:52:08;;;;;;;20.05;10.75;;;9.70;1.00;;;;;;5012677;28;20396;-74
2021/04/02 02:54:38;;;;;;;20.83;10.88;;;9.70;1.00;;;;;;5012404;28;20108;-74
2021/04/02 02:57:07;;;;;;;17.90;9.90;;;9.70;1.00;;;;;;5009460;28;20512;-73
2021/04/02 02:59:36;;;;;;;21.38;11.18;;;9.70;1.00;;;;;;5010189;28;20053;-73
2021/04/02 03:02:04;;;;;;;19.50;10.45;;;9.60;1.00;;;;;;5011507;28;20037;-72
2021/04/02 03:04:32;;;;;;;18.60;10.07;;;9.60;1.00;;;;;;5008942;28;20064;-75
2021/04/02 03:07:00;;;;;;;16.92;9.18;;;9.60;1.00;;;;;;5006588;28;20407;-74
2021/04/02 03:09:29;;;;;;;15.82;8.63;;;9.50;1.00;;;;;;5013869;28;20503;-74
2021/04/02 03:11:57;;;;;;;13.07;9.05;;;9.40;1.00;;;;;;5011690;28;20045;-74
2021/04/02 03:14:25;;;;;;;17.02;8.82;;;9.30;1.00;;;;;;5009994;28;20055;-74
2021/04/02 03:16:54;;;;;;;16.05;8.88;;;9.30;1.00;;;;;;5010128;28;20049;-73
2021/04/02 03:19:24;;;;;;;10.27;6.18;;;9.20;1.00;;;;;;5012791;28;20064;-74
2021/04/02 03:21:54;;;;;;;15.55;7.80;;;9.20;1.00;;;;;;5006904;28;20407;-74
2021/04/02 03:24:21;;;;;;;17.27;7.53;;;9.20;1.00;;;;;;5014295;28;20400;-74
2021/04/02 03:26:51;;;;;;;11.63;6.82;;;9.10;1.00;;;;;;5010827;28;20424;-73
2021/04/02 03:29:20;;;;;;;10.70;5.50;;;9.10;1.00;;;;;;5011483;28;20053;-74
2021/04/02 03:31:48;;;;;;;8.45;5.15;;;9.10;1.00;;;;;;5011352;28;20868;-74
2021/04/02 03:34:17;;;;;;;9.88;6.00;;;9.00;1.00;;;;;;5012302;28;20065;-74
2021/04/02 03:36:47;;;;;;;10.90;5.90;;;9.00;1.00;;;;;;5010118;28;20053;-74
2021/04/02 03:39:20;;;;;;;13.48;6.90;;;8.90;1.00;;;;;;5014609;28;20598;-74
2021/04/02 03:41:51;;;;;;;11.63;6.05;;;8.80;1.00;;;;;;5012208;28;20058;-74
2021/04/02 03:44:21;;;;;;;13.40;6.45;;;8.60;1.00;;;;;;5013598;28;20128;-74
2021/04/02 03:46:51;;;;;;;10.13;5.95;;;8.60;1.00;;;;;;5014524;28;20056;-75
2021/04/02 03:49:22;;;;;;;10.82;5.75;;;8.50;1.00;;;;;;5011828;28;20489;-74
2021/04/02 03:51:52;;;;;;;10.52;5.05;;;8.40;1.00;;;;;;5012067;28;20050;-74
2021/04/02 03:54:20;;;;;;;8.82;4.60;;;8.30;1.00;;;;;;5012094;28;20057;-74
2021/04/02 03:56:51;;;;;;;10.55;4.60;;;8.20;1.00;;;;;;5013141;28;20107;-75
2021/04/02 03:59:22;;;;;;;8.25;3.92;;;8.20;1.00;;;;;;5018889;28;20046;-74
2021/04/02 04:01:51;;;;;;;10.48;4.40;;;8.00;1.00;;;;;;5011707;28;20092;-74
2021/04/02 04:04:23;;;;;;;6.78;3.75;;;8.00;1.00;;;;;;5008854;28;20418;-73
2021/04/02 04:06:52;;;;;;;9.15;3.70;;;7.90;1.00;;;;;;5007770;28;20050;-73
2021/04/02 04:09:21;;;;;;;6.32;3.42;;;7.80;1.00;;;;;;5010689;28;20057;-73
2021/04/02 04:11:49;;;;;;;7.63;3.47;;;7.80;1.00;;;;;;5012228;28;20085;-73
2021/04/02 04:14:19;;;;;;;7.28;3.38;;;7.80;1.00;;;;;;5010838;28;20057;-73
2021/04/02 04:16:48;;;;;;;8.38;3.42;;;7.70;1.00;;;;;;5016058;28;20092;-74
2021/04/02 04:19:16;;;;;;;6.13;3.50;;;7.70;1.00;;;;;;5010083;28;20128;-73
2021/04/02 04:21:46;;;;;;;5.57;2.92;;;7.60;1.00;;;;;;5012999;28;20061;-73
2021/04/02 04:24:16;;;;;;;6.45;3.50;;;7.60;1.00;;;;;;5009829;28;20398;-72
2021/04/02 04:26:45;;;;;;;9.82;3.60;;;7.50;1.00;;;;;;5010004;28;20073;-74
2021/04/02 04:29:16;;;;;;;8.45;3.58;;;7.40;1.00;;;;;;5013378;28;20071;-74
2021/04/02 04:31:45;;;;;;;7.43;3.25;;;7.40;1.00;;;;;;5014268;28;20068;-73
2021/04/02 04:34:15;;;;;;;5.78;3.00;;;7.30;1.00;;;;;;5014331;28;20049;-74
2021/04/02 04:36:44;;;;;;;7.00;3.10;;;7.30;1.00;;;;;;5007294;28;20109;-74
2021/04/02 04:39:11;;;;;;;5.05;3.00;;;7.20;1.00;;;;;;5009830;28;20412;-74
2021/04/02 04:41:42;;;;;;;6.05;2.63;;;7.10;1.00;;;;;;5009714;28;20053;-73
2021/04/02 04:44:10;;;;;;;6.20;3.08;;;7.10;1.00;;;;;;5007050;28;20053;-74
2021/04/02 04:46:37;;;;;;;6.55;3.00;;;7.10;1.00;;;;;;5007396;28;20050;-74
2021/04/02 04:49:04;;;;;;;6.13;2.60;;;7.00;1.00;;;;;;5012067;28;20633;-74
2021/04/02 04:51:35;;;;;;;6.70;2.85;;;7.10;1.00;;;;;;5011927;28;20049;-74
2021/04/02 04:54:04;;;;;;;6.70;3.08;;;7.00;1.00;;;;;;5009708;28;20054;-74
2021/04/02 04:56:33;;;;;;;5.85;3.20;;;7.10;1.00;;;;;;5006006;28;20061;-73
2021/04/02 04:59:02;;;;;;;7.93;3.03;;;7.00;1.00;;;;;;5012193;28;20049;-74
2021/04/02 05:01:34;;;;;;;4.88;2.97;;;6.90;1.00;;;;;;5010468;28;20054;-74
2021/04/02 05:04:03;;;;;;;6.53;3.28;;;6.90;1.00;;;;;;5020601;28;20050;-73
2021/04/02 05:06:33;;;;;;;5.10;2.90;;;6.90;1.00;;;;;;5011237;28;20061;-72
2021/04/02 05:09:01;;;;;;;6.50;2.90;;;6.90;1.00;;;;;;5022039;28;20049;-72
2021/04/02 05:11:30;;;;;;;8.77;3.33;;;6.90;1.00;;;;;;5021321;28;20045;-73
2021/04/02 05:13:58;;;;;;;5.70;2.88;;;6.90;1.00;;;;;;5019069;28;20061;-73
2021/04/02 05:16:26;;;;;;;5.72;3.08;;;6.90;1.00;;;;;;5011203;28;20042;-73
2021/04/02 05:18:54;;;;;;;6.25;3.53;;;7.20;1.00;;;;;;5017378;28;20522;-73
2021/04/02 05:21:21;;;;;;;9.02;3.78;;;7.50;1.00;;;;;;5027563;28;20042;-74
2021/04/02 05:23:49;;;;;;;4.05;3.33;;;7.80;1.00;;;;;;5015439;28;20515;-72
2021/04/02 05:26:16;;;;;;;8.18;4.40;;;8.30;1.00;;;;;;5012811;28;20064;-74
2021/04/02 05:28:43;;;;;;;6.45;3.60;;;7.90;1.00;;;;;;5019848;28;20068;-73
2021/04/02 05:31:10;;;;;;;6.65;3.58;;;7.80;1.00;;;;;;5017544;28;20137;-74
2021/04/02 05:33:37;;;;;;;8.27;4.60;;;8.20;1.00;;;;;;5018303;28;20053;-73
2021/04/02 05:36:05;;;;;;;7.55;4.32;;;7.50;1.00;;;;;;5013947;28;20208;-75
2021/04/02 05:38:32;;;;;;;8.88;4.80;;;7.30;1.00;;;;;;5015438;28;20403;-75
2021/04/02 05:41:06;;;;;;;7.32;4.57;;;7.10;1.00;;;;;;5014476;28;20038;-74
2021/04/02 05:43:36;;;;;;;7.68;4.28;;;7.10;1.00;;;;;;5011073;28;20812;-75
2021/04/02 05:46:04;;;;;;;7.10;5.03;;;7.10;1.00;;;;;;5011189;28;20045;-73
2021/04/02 05:48:32;;;;;;;7.78;4.72;;;7.10;1.00;;;;;;5012459;28;20053;-76
2021/04/02 05:50:59;;;;;;;6.85;4.55;;;7.10;1.00;;;;;;5013250;28;20480;-75
2021/04/02 05:53:29;;;;;;;9.38;4.88;;;7.20;1.00;;;;;;5012884;28;20064;-74
2021/04/02 05:56:00;;;;;;;8.27;4.38;;;7.30;1.00;;;;;;5010598;28;20125;-74
2021/04/02 05:58:28;;;;;;;10.40;4.57;;;7.30;1.00;;;;;;5013477;28;20058;-74
2021/04/02 06:00:56;;;;;;;6.45;4.18;;;7.30;1.00;;;;;;5014065;28;20091;-74
2021/04/02 06:03:23;;;;;;;10.52;4.00;;;7.30;1.00;;;;;;5010452;28;20046;-74
2021/04/02 06:05:50;;;;;;;8.27;4.40;;;7.30;1.00;;;;;;5007363;28;20041;-74
2021/04/02 06:08:19;;;;;;;5.60;4.03;;;7.30;1.00;;;;;;5011706;28;20056;-74
2021/04/02 06:10:46;;;;;;;7.47;4.22;;;7.40;1.00;;;;;;5015733;28;20124;-74
2021/04/02 06:13:12;;;;;;;8.32;4.47;;;7.50;1.00;;;;;;5011575;28;20051;-77
2021/04/02 06:15:40;;;;;;;7.38;4.65;;;7.60;1.00;;;;;;5009971;28;20053;-75
2021/04/02 06:18:08;;;;;;;10.50;4.60;;;7.70;1.00;;;;;;5013345;28;20084;-74
2021/04/02 06:20:37;;;;;;;11.13;5.43;;;7.60;1.00;;;;;;5013422;28;20049;-73
2021/04/02 06:23:15;;;;;;;9.50;5.22;;;7.60;1.00;;;;;;5012481;28;20050;-74
2021/04/02 06:25:50;;;;;;;9.02;4.97;;;7.70;1.00;;;;;;5008365;28;20073;-74
2021/04/02 06:28:19;;;;;;;8.50;5.05;;;7.80;1.00;;;;;;5012027;28;20046;-75
2021/04/02 06:30:56;;;;;;;9.75;5.38;;;7.90;1.00;;;;;;5009519;28;20423;-73
2021/04/02 06:33:30;;;;;;;8.43;5.53;;;8.00;1.00;;;;;;5010795;28;20567;-73
2021/04/02 06:35:57;;;;;;;9.45;5.75;;;7.90;1.00;;;;;;5009565;28;20053;-73
2021/04/02 06:38:30;;;;;;;7.25;4.88;;;8.00;1.00;;;;;;5013829;28;20395;-76
2021/04/02 06:41:02;;;;;;;7.18;5.40;;;8.00;1.00;;;;;;5012543;28;20074;-74
2021/04/02 06:43:41;;;;;;;9.88;6.05;;;8.00;1.00;;;;;;5010352;28;20062;-73
2021/04/02 06:46:10;;;;;;;8.35;5.60;;;8.00;1.00;;;;;;5006147;28;20455;-73
2021/04/02 06:48:37;;;;;;;9.93;5.72;;;8.10;1.00;;;;;;5015737;28;20507;-74
2021/04/02 06:51:12;;;;;;;11.73;6.82;;;8.10;1.00;;;;;;5011989;28;20048;-74
2021/04/02 06:53:39;;;;;;;9.75;6.22;;;8.10;1.00;;;;;;5011632;28;20049;-74
2021/04/02 06:56:08;;;;;;;13.10;6.63;;;8.20;1.00;;;;;;5006603;28;20054;-74
2021/04/02 06:58:38;;;;;;;8.38;5.85;;;8.30;1.00;;;;;;5015335;28;20491;-74
2021/04/02 07:01:06;;;;;;;12.77;6.00;;;8.30;1.00;;;;;;5015860;28;20100;-74
2021/04/02 07:03:36;;;;;;;9.38;5.93;;;8.00;1.00;;;;;;5013568;28;20048;-75
2021/04/02 07:06:05;;;;;;;9.20;5.72;;;8.10;1.00;;;;;;5006592;28;20041;-74
2021/04/02 07:08:33;;;;;;;7.15;5.72;;;8.30;1.00;;;;;;5015001;28;20388;-74
2021/04/02 07:11:01;;;;;;;11.68;6.47;;;8.20;1.00;;;;;;5013211;28;20165;-75
2021/04/02 07:13:34;;;;;;;10.32;6.20;;;8.10;1.00;;;;;;5012974;28;20081;-74
2021/04/02 07:16:02;;;;;;;11.00;6.35;;;8.30;1.00;;;;;;5008310;28;20041;-75
2021/04/02 07:18:29;;;;;;;9.32;6.43;;;8.10;1.00;;;;;;5013729;28;20053;-74
2021/04/02 07:20:58;;;;;;;9.45;6.65;;;8.30;1.00;;;;;;5010365;28;20491;-74
2021/04/02 07:23:27;;;;;;;10.60;6.45;;;8.40;1.00;;;;;;5009433;28;20058;-74
2021/04/02 07:25:58;;;;;;;11.88;6.20;;;8.40;1.00;;;;;;5010608;28;20431;-74
2021/04/02 07:28:26;;;;;;;8.35;5.95;;;8.30;1.00;;;;;;5012259;28;20046;-73
2021/04/02 07:30:54;;;;;;;8.60;6.30;;;8.30;1.00;;;;;;5017775;28;20415;-74
2021/04/02 07:33:22;;;;;;;12.32;6.47;;;8.50;1.00;;;;;;5011495;28;20057;-73
2021/04/02 07:35:56;;;;;;;11.27;6.60;;;8.60;1.00;;;;;;5012957;28;20049;-73
2021/04/02 07:38:27;;;;;;;11.93;7.18;;;8.90;1.00;;;;;;5009199;28;20167;-73
2021/04/02 07:40:55;;;;;;;13.45;8.10;;;9.10;1.00;;;;;;5019838;28;20050;-73
2021/04/02 07:43:30;;;;;;;11.68;7.90;;;8.90;1.00;;;;;;5012260;28;20049;-72
2021/04/02 07:46:00;;;;;;;10.27;7.40;;;9.10;1.00;;;;;;5010482;28;20484;-72
2021/04/02 07:48:27;;;;;;;11.10;7.35;;;9.30;1.00;;;;;;5011862;28;20053;-74
2021/04/02 07:50:57;;;;;;;10.35;7.40;;;9.20;1.00;;;;;;5011069;28;20458;-72
2021/04/02 07:53:44;;;;;;;10.88;7.15;;;8.90;1.00;;;;;;5011926;28;20416;-72
2021/04/02 07:56:13;;;;;;;11.73;7.88;;;9.00;1.00;;;;;;5013029;28;20062;-74
2021/04/02 07:58:42;;;;;;;13.80;8.50;;;9.20;1.00;;;;;;5013156;28;20046;-75
2021/04/02 08:01:09;;;;;;;11.38;8.23;;;9.60;1.00;;;;;;5017283;28;20046;-73
2021/04/02 08:03:36;;;;;;;14.73;8.50;;;9.50;1.00;;;;;;5009202;28;20077;-73
2021/04/02 08:06:08;;;;;;;13.00;8.68;;;9.40;1.00;;;;;;5010281;28;20056;-73
2021/04/02 08:08:44;;;;;;;12.60;8.95;;;9.40;1.00;;;;;;5009815;28;20042;-73
2021/04/02 08:11:15;;;;;;;10.80;8.40;;;9.30;1.00;;;;;;5009725;28;20046;-73
2021/04/02 08:14:00;;;;;;;15.50;8.68;;;9.50;1.00;;;;;;5016939;28;20423;-74
2021/04/02 08:16:49;;;;;;;12.60;7.93;;;9.40;1.00;;;;;;5011360;28;20068;-73
2021/04/02 08:19:19;;;;;;;10.80;7.80;;;9.40;1.00;;;;;;5010422;28;20045;-73
2021/04/02 08:21:49;;;;;;;10.73;7.50;;;9.30;1.00;;;;;;5009396;28;20419;-74
2021/04/02 08:24:20;;;;;;;12.52;8.00;;;9.50;1.00;;;;;;5013370;28;20050;-72
2021/04/02 08:26:47;;;;;;;12.05;8.45;;;9.80;1.00;;;;;;5007331;28;20061;-73
2021/04/02 08:29:16;;;;;;;10.90;7.65;;;9.50;1.00;;;;;;5017194;28;20137;-73
2021/04/02 08:31:47;;;;;;;13.00;7.97;;;9.70;1.00;;;;;;5011212;28;20072;-73
2021/04/02 08:34:15;;;;;;;11.18;7.97;;;9.70;1.00;;;;;;5010931;28;20050;-72
2021/04/02 08:36:42;;;;;;;12.68;8.38;;;9.60;1.00;;;;;;5013377;28;20048;-72
2021/04/02 08:39:09;;;;;;;12.45;8.18;;;9.40;1.00;;;;;;5024562;28;20054;-73
2021/04/02 08:41:36;;;;;;;15.10;8.70;;;9.50;1.00;;;;;;5014072;28;20435;-74
2021/04/02 08:44:04;;;;;;;11.82;8.27;;;9.60;1.00;;;;;;5018385;28;20042;-73
2021/04/02 08:46:36;;;;;;;11.25;7.32;;;9.60;1.00;;;;;;5015110;28;20054;-74
2021/04/02 08:49:03;;;;;;;13.50;8.40;;;10.00;1.00;;;;;;5015485;28;20480;-73
2021/04/02 08:51:30;;;;;;;11.80;7.82;;;10.30;1.00;;;;;;5024938;28;20045;-74
2021/04/02 08:53:57;;;;;;;18.52;8.60;;;10.20;1.00;;;;;;5019896;28;20045;-73
2021/04/02 08:56:27;;;;;;;11.85;7.65;;;10.30;1.00;;;;;;5012063;28;20052;-74
2021/04/02 08:58:54;;;;;;;11.85;7.90;;;10.50;1.00;;;;;;5014731;28;20077;-72
2021/04/02 09:01:22;;;;;;;9.80;7.97;;;10.10;1.00;;;;;;5015439;28;20046;-73
2021/04/02 09:03:49;;;;;;;12.13;7.80;;;10.50;1.00;;;;;;5015885;28;20124;-74
2021/04/02 09:06:16;;;;;;;12.50;8.75;;;10.60;1.00;;;;;;5015355;28;20057;-73
2021/04/02 09:08:43;;;;;;;13.48;8.43;;;10.60;1.00;;;;;;5024770;28;20064;-73
2021/04/02 09:11:11;;;;;;;14.27;8.70;;;10.60;1.00;;;;;;5022077;28;20467;-74
2021/04/02 09:13:41;;;;;;;10.55;7.68;;;10.70;1.00;;;;;;5014039;28;20065;-73
2021/04/02 09:16:11;;;;;;;12.52;8.98;;;10.70;1.00;;;;;;5013605;28;20057;-73
2021/04/02 09:18:46;;;;;;;9.93;7.78;;;10.80;1.00;;;;;;5018582;28;20563;-73
2021/04/02 09:21:17;;;;;;;15.45;8.50;;;10.60;1.00;;;;;;5019638;28;20042;-74
2021/04/02 09:23:47;;;;;;;11.63;8.15;;;10.90;1.00;;;;;;5012288;28;20076;-75
2021/04/02 09:26:13;;;;;;;13.75;8.85;;;10.90;1.00;;;;;;5013648;28;20041;-75
2021/04/02 09:28:41;;;;;;;10.05;8.50;;;10.60;1.00;;;;;;5015061;28;20057;-77
2021/04/02 09:31:17;;;;;;;12.15;8.70;;;10.50;1.00;;;;;;5013739;28;20052;-77
2021/04/02 09:33:46;;;;;;;11.27;8.18;;;10.40;1.00;;;;;;5012196;28;20050;-74
2021/04/02 09:36:14;;;;;;;12.57;8.82;;;10.40;1.00;;;;;;5011661;28;20523;-73
2021/04/02 09:38:41;;;;;;;13.48;9.80;;;10.50;1.00;;;;;;5015087;28;20056;-73
2021/04/02 09:41:10;;;;;;;11.93;8.77;;;10.80;1.00;;;;;;5013978;28;20045;-75
2021/04/02 09:43:45;;;;;;;13.77;9.05;;;10.80;1.00;;;;;;5012731;28;20046;-75
2021/04/02 09:46:28;;;;;;;15.13;8.80;;;10.80;1.00;;;;;;5011320;28;20053;-73
2021/04/02 09:49:04;;;;;;;13.38;9.25;;;10.80;1.00;;;;;;5015613;28;20050;-74
2021/04/02 09:51:31;;;;;;;13.13;9.18;;;11.30;1.00;;;;;;5013240;28;20059;-73
2021/04/02 09:53:58;;;;;;;16.27;9.27;;;11.50;1.00;;;;;;5010607;28;20042;-75
2021/04/02 09:56:26;;;;;;;12.38;8.88;;;11.90;1.00;;;;;;5013069;28;20603;-74
2021/04/02 09:58:53;;;;;;;11.98;8.32;;;11.50;1.00;;;;;;5014949;28;20060;-75
2021/04/02 10:01:21;;;;;;;12.18;8.73;;;11.80;1.00;;;;;;5012350;28;20050;-74
2021/04/02 10:03:48;;;;;;;12.25;9.05;;;11.90;1.00;;;;;;5013691;28;20046;-73
2021/04/02 10:06:15;;;;;;;13.68;9.00;;;11.70;1.00;;;;;;5011649;28;20041;-74
2021/04/02 10:08:42;;;;;;;13.25;8.73;;;11.70;1.00;;;;;;5012766;28;20182;-74
2021/04/02 10:11:09;;;;;;;11.23;8.10;;;11.70;1.00;;;;;;5012415;28;20050;-75
2021/04/02 10:13:36;;;;;;;12.73;8.85;;;11.90;1.00;;;;;;5014021;28;20053;-75
2021/04/02 10:16:03;;;;;;;12.80;8.23;;;12.00;1.00;;;;;;5009080;28;20057;-75
2021/04/02 10:18:31;;;;;;;10.85;8.05;;;11.90;1.00;;;;;;5014122;28;20069;-75
2021/04/02 10:20:58;;;;;;;11.77;7.47;;;12.00;1.00;;;;;;5013500;28;20045;-74
2021/04/02 10:23:25;;;;;;;9.90;7.55;;;11.70;1.00;;;;;;5010954;28;20042;-74
2021/04/02 10:25:52;;;;;;;11.23;8.00;;;11.50;1.00;;;;;;5011496;28;20053;-75
2021/04/02 10:28:20;;;;;;;10.38;7.25;;;11.70;1.00;;;;;;5012950;28;20475;-75
2021/04/02 10:30:48;;;;;;;10.68;7.50;;;12.10;1.00;;;;;;5013304;28;20053;-75
2021/04/02 10:33:15;;;;;;;9.25;6.95;;;11.90;1.00;;;;;;5011461;28;20049;-74
2021/04/02 10:35:44;;;;;;;10.35;6.72;;;12.00;1.00;;;;;;5010873;28;20050;-75
2021/04/02 10:38:11;;;;;;;9.07;7.05;;;11.20;1.00;;;;;;5013102;28;20132;-75
2021/04/02 10:40:38;;;;;;;8.85;7.07;;;11.70;1.00;;;;;;5013565;28;20053;-75
2021/04/02 10:43:06;;;;;;;9.23;6.18;;;11.70;1.00;;;;;;5011569;28;20046;-75
2021/04/02 10:45:34;;;;;;;9.75;6.80;;;11.80;1.00;;;;;;5012288;28;20593;-75
2021/04/02 10:48:01;;;;;;;9.20;6.70;;;11.80;1.00;;;;;;5011404;28;20495;-75
2021/04/02 10:50:29;;;;;;;8.82;7.03;;;11.50;1.00;;;;;;5011781;28;20054;-75
2021/04/02 10:52:57;;;;;;;12.95;6.55;;;11.30;1.00;;;;;;5014016;28;20500;-74
2021/04/02 10:55:25;;;;;;;9.25;6.20;;;11.90;1.00;;;;;;5007460;28;20416;-74
2021/04/02 10:57:52;;;;;;;8.07;6.30;;;11.40;1.00;;;;;;5011673;28;20046;-74
2021/04/02 11:00:21;;;;;;;9.10;6.45;;;11.80;1.00;;;;;;5011284;28;20081;-75
2021/04/02 11:02:48;;;;;;;9.88;6.32;;;11.70;1.00;;;;;;5011705;28;20045;-73
2021/04/02 11:05:16;;;;;;;7.70;6.38;;;12.10;1.00;;;;;;5009759;28;20065;-75
2021/04/02 11:07:43;;;;;;;8.43;6.18;;;11.90;1.00;;;;;;5011309;28;20053;-73
2021/04/02 11:10:13;;;;;;;7.65;5.72;;;12.60;1.00;;;;;;5013923;28;20061;-74
2021/04/02 11:12:40;;;;;;;6.88;5.50;;;12.10;1.00;;;;;;5011594;28;20053;-74
2021/04/02 11:15:12;;;;;;;9.27;5.57;;;12.10;1.00;;;;;;5012774;28;20156;-74
2021/04/02 11:17:40;;;;;;;8.98;6.00;;;12.40;1.00;;;;;;5014679;28;20125;-74
2021/04/02 11:20:08;;;;;;;11.18;6.10;;;12.10;1.00;;;;;;5013271;28;20615;-74
2021/04/02 11:22:35;;;;;;;8.82;5.93;;;12.10;1.00;;;;;;5009975;28;20484;-74
2021/04/02 11:25:02;;;;;;;8.10;5.75;;;12.10;1.00;;;;;;5011278;28;20042;-75
2021/04/02 11:27:30;;;;;;;7.15;5.43;;;12.40;1.00;;;;;;5014439;28;20515;-75
2021/04/02 11:29:57;;;;;;;8.05;5.93;;;12.30;1.00;;;;;;5010608;28;20062;-73
2021/04/02 11:32:24;;;;;;;6.65;5.50;;;12.10;1.00;;;;;;5010618;28;20042;-75
2021/04/02 11:34:51;;;;;;;7.65;5.75;;;11.60;1.00;;;;;;5010159;28;20054;-74
2021/04/02 11:37:18;;;;;;;7.25;5.70;;;11.90;1.00;;;;;;5009227;28;20136;-75
2021/04/02 11:39:46;;;;;;;7.05;5.00;;;12.10;1.00;;;;;;5008840;28;20065;-74
2021/04/02 11:42:14;;;;;;;6.90;5.75;;;12.80;1.00;;;;;;5011755;28;20055;-74
2021/04/02 11:44:41;;;;;;;7.68;5.50;;;12.40;1.00;;;;;;5011804;28;20057;-76
2021/04/02 11:47:08;;;;;;;8.85;5.53;;;12.60;1.00;;;;;;5009443;28;20046;-74
2021/04/02 11:49:36;;;;;;;7.03;5.78;;;12.60;1.00;;;;;;5010511;28;20057;-75
2021/04/02 11:52:04;;;;;;;8.13;6.00;;;12.50;1.00;;;;;;5009881;28;20042;-73
2021/04/02 11:54:31;;;;;;;8.45;5.32;;;12.20;1.00;;;;;;5011866;28;20127;-75
2021/04/02 11:56:58;;;;;;;7.25;5.85;;;12.30;1.00;;;;;;5010584;28;20360;-73
2021/04/02 11:59:25;;;;;;;6.88;5.43;;;12.50;1.00;;;;;;5010456;28;20049;-73
2021/04/02 12:01:52;;;;;;;7.32;5.35;;;12.80;1.00;;;;;;5010362;28;20060;-73
2021/04/02 12:04:19;;;;;;;6.60;5.13;;;13.00;1.00;;;;;;5012268;28;20057;-75
2021/04/02 12:06:47;;;;;;;6.28;5.00;;;12.90;1.00;;;;;;5008755;28;20057;-75
2021/04/02 12:09:13;;;;;;;6.35;4.40;;;12.70;1.00;;;;;;5010020;28;20045;-75
2021/04/02 12:11:40;;;;;;;6.45;4.60;;;12.50;1.00;;;;;;5010364;28;20072;-74
2021/04/02 12:14:08;;;;;;;9.35;4.70;;;12.60;1.00;;;;;;5012048;28;20046;-74
2021/04/02 12:16:35;;;;;;;5.93;4.57;;;12.30;1.00;;;;;;5008474;28;20052;-75
2021/04/02 12:19:04;;;;;;;7.40;4.70;;;12.50;1.00;;;;;;5012650;28;20077;-72
2021/04/02 12:21:32;;;;;;;6.45;4.57;;;12.60;1.00;;;;;;5011512;28;20096;-74
2021/04/02 12:24:00;;;;;;;8.70;5.05;;;12.80;1.00;;;;;;5008729;28;20054;-75
2021/04/02 12:26:26;;;;;;;5.78;4.45;;;12.50;1.00;;;;;;5007385;28;20070;-74
2021/04/02 12:28:53;;;;;;;6.65;4.38;;;12.60;1.00;;;;;;5009501;28;20129;-74
2021/04/02 12:31:21;;;;;;;5.43;4.68;;;12.50;1.00;;;;;;5013750;28;20050;-75
2021/04/02 12:33:48;;;;;;;5.85;4.75;;;12.60;1.00;;;;;;5009844;28;20085;-74
2021/04/02 12:36:16;;;;;;;5.95;5.13;;;12.70;1.00;;;;;;5010609;28;20053;-75
2021/04/02 12:38:43;;;;;;;4.97;4.20;;;12.60;1.00;;;;;;5010349;28;20046;-73
2021/04/02 12:41:10;;;;;;;8.95;5.30;;;12.70;1.00;;;;;;5011870;28;20054;-74
2021/04/02 12:43:37;;;;;;;7.57;4.47;;;13.00;1.00;;;;;;5016802;28;20524;-74
2021/04/02 12:46:04;;;;;;;7.00;4.95;;;12.80;1.00;;;;;;5007801;28;20042;-73
2021/04/02 12:48:31;;;;;;;8.05;4.13;;;12.40;1.00;;;;;;5010900;28;20053;-74
2021/04/02 12:50:59;;;;;;;6.20;4.57;;;12.80;1.00;;;;;;5015654;28;20045;-75
2021/04/02 12:53:28;;;;;;;5.65;4.15;;;12.90;1.00;;;;;;5009188;28;20053;-75
2021/04/02 12:55:59;;;;;;;5.55;4.57;;;13.10;1.00;;;;;;5008505;28;20054;-74
2021/04/02 12:58:26;;;;;;;6.65;4.82;;;12.60;1.00;;;;;;5010079;28;20054;-72
2021/04/02 13:00:54;;;;;;;5.18;4.38;;;12.60;1.00;;;;;;5010628;28;20056;-75